createdAt,value
2018-08-27T00:00:39.044Z,14.3
2018-08-27T00:01:49.021Z,14.31
2018-08-27T00:02:58.976Z,14.31
2018-08-27T00:04:08.686Z,14.41
2018-08-27T00:05:18.383Z,14.31
2018-08-27T00:06:28.349Z,14.31
2018-08-27T00:07:38.366Z,14.33
2018-08-27T00:08:47.824Z,14.31
2018-08-27T00:09:57.787Z,14.37
2018-08-27T00:11:07.757Z,14.34
2018-08-27T00:12:17.459Z,14.33
2018-08-27T00:13:27.427Z,14.28
2018-08-27T00:14:37.384Z,14.31
2018-08-27T00:15:46.827Z,14.2
2018-08-27T00:16:56.538Z,14.3
2018-08-27T00:18:06.239Z,14.26
2018-08-27T00:19:16.201Z,14.26
2018-08-27T00:20:25.912Z,14.28
2018-08-27T00:21:35.616Z,14.3
2018-08-27T00:22:45.583Z,14.25
2018-08-27T00:23:55.296Z,14.26
2018-08-27T00:25:05.255Z,14.25
2018-08-27T00:26:15.221Z,14.25
2018-08-27T00:27:25.183Z,14.23
2018-08-27T00:28:35.167Z,14.25
2018-08-27T00:29:44.603Z,14.23
2018-08-27T00:30:54.567Z,14.3
2018-08-27T00:32:04.519Z,14.23
2018-08-27T00:33:14.232Z,14.18
2018-08-27T00:34:23.941Z,14.15
2018-08-27T00:35:33.925Z,14.13
2018-08-27T00:36:43.886Z,14.13
2018-08-27T00:37:53.845Z,14.15
2018-08-27T00:39:03.808Z,14.15
2018-08-27T00:40:13.781Z,14.13
2018-08-27T00:41:23.480Z,14.11
2018-08-27T00:42:32.963Z,14.11
2018-08-27T00:43:42.927Z,14.05
2018-08-27T00:44:52.895Z,14.03
2018-08-27T00:46:02.588Z,14.08
2018-08-27T00:47:12.289Z,14.03
2018-08-27T00:48:21.990Z,14.05
2018-08-27T00:49:31.961Z,13.91
2018-08-27T00:50:41.663Z,13.94
2018-08-27T00:51:51.356Z,13.98
2018-08-27T00:53:01.324Z,13.89
2018-08-27T00:54:11.296Z,13.87
2018-08-27T00:55:21.268Z,13.86
2018-08-27T00:56:31.232Z,13.86
2018-08-27T00:57:40.933Z,13.91
2018-08-27T00:58:50.902Z,13.93
2018-08-27T01:00:00.860Z,13.76
2018-08-27T01:01:10.563Z,13.85
2018-08-27T01:02:20.279Z,13.79
2018-08-27T01:03:29.986Z,13.73
2018-08-27T01:04:39.690Z,13.78
2018-08-27T01:05:49.385Z,13.75
2018-08-27T01:06:59.373Z,13.76
2018-08-27T01:08:09.338Z,13.76
2018-08-27T01:09:19.295Z,13.8
2018-08-27T01:10:29.254Z,13.75
2018-08-27T01:11:39.219Z,13.7
2018-08-27T01:12:48.928Z,13.68
2018-08-27T01:13:58.897Z,13.68
2018-08-27T01:15:08.859Z,13.65
2018-08-27T01:16:18.305Z,13.68
2018-08-27T01:17:28.273Z,13.68
2018-08-27T01:18:38.241Z,13.57
2018-08-27T01:19:47.951Z,13.61
2018-08-27T01:20:57.929Z,13.58
2018-08-27T01:22:07.893Z,13.5
2018-08-27T01:23:17.594Z,13.49
2018-08-27T01:24:27.554Z,13.49
2018-08-27T01:25:37.522Z,13.5
2018-08-27T01:26:47.485Z,13.46
2018-08-27T01:27:57.447Z,13.42
2018-08-27T01:29:06.889Z,13.33
2018-08-27T01:30:16.591Z,13.43
2018-08-27T01:31:26.546Z,13.39
2018-08-27T01:32:36.252Z,13.39
2018-08-27T01:33:45.957Z,13.31
2018-08-27T01:34:55.922Z,13.43
2018-08-27T01:36:05.632Z,13.36
2018-08-27T01:37:15.562Z,13.28
2018-08-27T01:38:25.527Z,13.39
2018-08-27T01:39:35.241Z,13.28
2018-08-27T01:40:45.213Z,13.36
2018-08-27T01:41:55.168Z,13.24
2018-08-27T01:43:05.139Z,13.17
2018-08-27T01:44:14.843Z,13.23
2018-08-27T01:45:24.804Z,13.21
2018-08-27T01:46:34.788Z,13.19
2018-08-27T01:47:44.747Z,13.13
2018-08-27T01:48:54.458Z,13.19
2018-08-27T01:50:04.421Z,13.06
2018-08-27T01:51:14.386Z,13.12
2018-08-27T01:52:24.146Z,13.13
2018-08-27T01:53:34.093Z,13.11
2018-08-27T01:54:44.065Z,13.06
2018-08-27T01:55:54.034Z,13.12
2018-08-27T01:57:03.749Z,13.09
2018-08-27T01:58:13.724Z,13.05
2018-08-27T01:59:23.678Z,13.06
2018-08-27T02:00:33.631Z,12.99
2018-08-27T02:01:43.585Z,12.94
2018-08-27T02:02:53.550Z,13.03
2018-08-27T02:04:03.530Z,12.93
2018-08-27T02:05:12.979Z,12.95
2018-08-27T02:06:22.424Z,12.9
2018-08-27T02:07:32.383Z,12.93
2018-08-27T02:08:42.369Z,12.93
2018-08-27T02:09:52.321Z,12.98
2018-08-27T02:11:02.023Z,12.91
2018-08-27T02:12:11.735Z,12.91
2018-08-27T02:13:21.434Z,12.94
2018-08-27T02:14:31.132Z,13.02
2018-08-27T02:15:40.839Z,12.95
2018-08-27T02:16:50.548Z,12.93
2018-08-27T02:18:00.509Z,12.88
2018-08-27T02:19:10.473Z,12.78
2018-08-27T02:20:20.442Z,12.8
2018-08-27T02:21:30.414Z,12.72
2018-08-27T02:22:39.905Z,12.76
2018-08-27T02:23:49.861Z,12.72
2018-08-27T02:24:59.817Z,12.66
2018-08-27T02:26:09.781Z,12.73
2018-08-27T02:27:19.479Z,12.76
2018-08-27T02:28:29.441Z,12.68
2018-08-27T02:29:39.148Z,12.66
2018-08-27T02:30:49.120Z,12.61
2018-08-27T02:31:58.840Z,12.69
2018-08-27T02:33:08.803Z,12.66
2018-08-27T02:34:18.776Z,12.63
2018-08-27T02:35:28.835Z,12.51
2018-08-27T02:36:38.540Z,12.65
2018-08-27T02:37:48.500Z,12.58
2018-08-27T02:38:58.461Z,12.55
2018-08-27T02:40:08.186Z,12.53
2018-08-27T02:41:18.146Z,12.51
2018-08-27T02:42:28.130Z,12.54
2018-08-27T02:43:38.102Z,12.5
2018-08-27T02:44:47.807Z,12.44
2018-08-27T02:45:57.510Z,12.53
2018-08-27T02:47:07.462Z,12.5
2018-08-27T02:48:17.435Z,12.48
2018-08-27T02:49:27.417Z,12.47
2018-08-27T02:50:37.370Z,12.44
2018-08-27T02:51:47.337Z,12.51
2018-08-27T02:52:57.306Z,12.51
2018-08-27T02:54:06.757Z,12.5
2018-08-27T02:55:16.460Z,12.51
2018-08-27T02:56:26.164Z,12.53
2018-08-27T02:57:36.124Z,12.58
2018-08-27T02:58:45.829Z,12.55
2018-08-27T02:59:55.783Z,12.5
2018-08-27T03:01:05.498Z,12.58
2018-08-27T03:02:15.461Z,12.51
2018-08-27T03:03:25.429Z,12.53
2018-08-27T03:04:35.396Z,12.48
2018-08-27T03:05:45.127Z,12.53
2018-08-27T03:06:55.096Z,12.65
2018-08-27T03:08:04.542Z,12.63
2018-08-27T03:09:14.499Z,12.7
2018-08-27T03:10:24.472Z,12.66
2018-08-27T03:11:34.433Z,12.66
2018-08-27T03:12:44.394Z,12.66
2018-08-27T03:13:54.358Z,12.65
2018-08-27T03:15:03.800Z,12.68
2018-08-27T03:16:13.515Z,12.65
2018-08-27T03:17:22.962Z,12.55
2018-08-27T03:18:33.177Z,12.55
2018-08-27T03:19:43.148Z,12.62
2018-08-27T03:20:52.844Z,12.51
2018-08-27T03:22:02.808Z,12.48
2018-08-27T03:23:12.808Z,12.5
2018-08-27T03:24:22.509Z,12.51
2018-08-27T03:25:32.484Z,12.54
2018-08-27T03:26:42.211Z,12.48
2018-08-27T03:27:51.909Z,12.5
2018-08-27T03:29:01.865Z,12.53
2018-08-27T03:30:11.821Z,12.54
2018-08-27T03:31:21.537Z,12.51
2018-08-27T03:32:31.513Z,12.5
2018-08-27T03:33:41.474Z,12.48
2018-08-27T03:34:51.190Z,12.53
2018-08-27T03:36:01.165Z,12.47
2018-08-27T03:37:10.880Z,12.51
2018-08-27T03:38:20.587Z,12.55
2018-08-27T03:39:30.546Z,12.48
2018-08-27T03:40:40.392Z,12.48
2018-08-27T03:41:50.839Z,12.5
2018-08-27T03:43:00.835Z,12.5
2018-08-27T03:44:10.541Z,12.5
2018-08-27T03:45:20.253Z,12.5
2018-08-27T03:46:30.225Z,12.5
2018-08-27T03:47:40.182Z,12.47
2018-08-27T03:48:49.883Z,12.43
2018-08-27T03:49:59.600Z,12.47
2018-08-27T03:51:09.308Z,12.45
2018-08-27T03:52:19.017Z,12.36
2018-08-27T03:53:28.984Z,12.37
2018-08-27T03:54:38.954Z,12.47
2018-08-27T03:55:48.659Z,12.4
2018-08-27T03:56:58.612Z,12.39
2018-08-27T03:58:08.078Z,12.4
2018-08-27T03:59:17.778Z,12.39
2018-08-27T04:00:27.502Z,12.43
2018-08-27T04:01:37.459Z,12.32
2018-08-27T04:02:47.420Z,12.36
2018-08-27T04:03:57.122Z,12.43
2018-08-27T04:05:07.167Z,12.43
2018-08-27T04:06:16.925Z,12.35
2018-08-27T04:07:26.909Z,12.39
2018-08-27T04:08:36.916Z,12.32
2018-08-27T04:09:46.880Z,12.28
2018-08-27T04:10:56.841Z,12.23
2018-08-27T04:12:06.551Z,12.25
2018-08-27T04:13:16.000Z,12.23
2018-08-27T04:14:25.972Z,12.3
2018-08-27T04:15:35.677Z,12.28
2018-08-27T04:16:45.642Z,12.28
2018-08-27T04:17:55.622Z,12.28
2018-08-27T04:19:05.345Z,12.21
2018-08-27T04:20:15.071Z,12.21
2018-08-27T04:21:25.088Z,12.15
2018-08-27T04:22:35.052Z,12.23
2018-08-27T04:23:45.026Z,12.18
2018-08-27T04:24:54.992Z,12.25
2018-08-27T04:26:04.956Z,12.08
2018-08-27T04:27:14.925Z,12.2
2018-08-27T04:28:24.904Z,12.15
2018-08-27T04:29:34.886Z,12.05
2018-08-27T04:30:44.844Z,12.08
2018-08-27T04:31:54.831Z,12.05
2018-08-27T04:33:04.277Z,12.03
2018-08-27T04:34:13.976Z,12.05
2018-08-27T04:35:23.944Z,12.08
2018-08-27T04:36:33.654Z,12.08
2018-08-27T04:37:43.611Z,12.12
2018-08-27T04:38:53.553Z,12.05
2018-08-27T04:40:03.259Z,12.07
2018-08-27T04:41:12.714Z,12.05
2018-08-27T04:42:22.476Z,12
2018-08-27T04:43:32.611Z,12.08
2018-08-27T04:44:42.585Z,12.05
2018-08-27T04:45:52.305Z,12.07
2018-08-27T04:47:02.390Z,12.23
2018-08-27T04:48:12.338Z,12.23
2018-08-27T04:49:22.045Z,12.2
2018-08-27T04:50:32.031Z,12.28
2018-08-27T04:51:41.467Z,12.28
2018-08-27T04:52:51.502Z,12.32
2018-08-27T04:54:01.481Z,12.35
2018-08-27T04:55:11.456Z,12.33
2018-08-27T04:56:21.177Z,12.39
2018-08-27T04:57:31.165Z,12.35
2018-08-27T04:58:41.153Z,12.35
2018-08-27T04:59:51.114Z,12.39
2018-08-27T05:01:00.828Z,12.48
2018-08-27T05:02:10.794Z,12.4
2018-08-27T05:03:20.765Z,12.48
2018-08-27T05:04:30.733Z,12.53
2018-08-27T05:05:40.712Z,12.51
2018-08-27T05:06:50.428Z,12.53
2018-08-27T05:08:00.135Z,12.68
2018-08-27T05:09:09.846Z,12.73
2018-08-27T05:10:19.815Z,12.78
2018-08-27T05:11:29.540Z,12.7
2018-08-27T05:12:39.641Z,12.76
2018-08-27T05:13:49.431Z,12.73
2018-08-27T05:14:59.397Z,12.87
2018-08-27T05:16:09.369Z,12.87
2018-08-27T05:17:19.341Z,12.81
2018-08-27T05:18:29.062Z,12.94
2018-08-27T05:19:38.766Z,12.91
2018-08-27T05:20:48.485Z,13.05
2018-08-27T05:21:58.455Z,13.01
2018-08-27T05:23:08.155Z,13.08
2018-08-27T05:24:18.134Z,13.16
2018-08-27T05:25:28.103Z,13.12
2018-08-27T05:26:37.819Z,13.11
2018-08-27T05:27:47.810Z,13.11
2018-08-27T05:28:57.824Z,13.16
2018-08-27T05:30:07.795Z,13.13
2018-08-27T05:31:17.631Z,13.23
2018-08-27T05:32:27.985Z,13.24
2018-08-27T05:33:37.446Z,13.24
2018-08-27T05:34:47.436Z,13.19
2018-08-27T05:35:57.421Z,13.23
2018-08-27T05:37:07.419Z,13.27
2018-08-27T05:38:17.776Z,13.27
2018-08-27T05:39:27.526Z,13.23
2018-08-27T05:40:37.496Z,13.21
2018-08-27T05:41:47.450Z,13.23
2018-08-27T05:42:57.426Z,13.21
2018-08-27T05:44:06.896Z,13.2
2018-08-27T05:45:16.876Z,13.2
2018-08-27T05:46:26.837Z,13.27
2018-08-27T05:47:36.919Z,13.27
2018-08-27T05:48:46.755Z,13.31
2018-08-27T05:49:56.759Z,13.36
2018-08-27T05:51:06.739Z,13.36
2018-08-27T05:52:16.817Z,13.45
2018-08-27T05:53:27.426Z,13.37
2018-08-27T05:54:37.502Z,13.37
2018-08-27T05:55:47.506Z,13.45
2018-08-27T05:56:57.216Z,13.42
2018-08-27T05:58:07.208Z,13.42
2018-08-27T05:59:17.185Z,13.43
2018-08-27T06:00:27.155Z,13.54
2018-08-27T06:01:37.318Z,13.58
2018-08-27T06:02:47.363Z,13.64
2018-08-27T06:03:57.366Z,13.71
2018-08-27T06:05:06.821Z,13.73
2018-08-27T06:06:16.860Z,13.87
2018-08-27T06:07:26.836Z,13.91
2018-08-27T06:08:36.819Z,13.97
2018-08-27T06:09:46.939Z,14.04
2018-08-27T06:10:56.702Z,14.15
2018-08-27T06:12:06.733Z,14.26
2018-08-27T06:13:16.710Z,14.37
2018-08-27T06:14:26.676Z,14.56
2018-08-27T06:15:36.668Z,14.59
2018-08-27T06:16:46.859Z,14.67
2018-08-27T06:17:56.826Z,14.78
2018-08-27T06:19:06.803Z,14.86
2018-08-27T06:20:16.774Z,14.9
2018-08-27T06:21:26.744Z,14.94
2018-08-27T06:22:36.711Z,15.08
2018-08-27T06:23:46.686Z,15.02
2018-08-27T06:24:56.463Z,15.11
2018-08-27T06:26:06.553Z,15.17
2018-08-27T06:27:16.266Z,15.19
2018-08-27T06:28:26.244Z,15.15
2018-08-27T06:29:36.212Z,15.11
2018-08-27T06:30:46.175Z,15.15
2018-08-27T06:31:55.901Z,15.27
2018-08-27T06:33:05.617Z,15.29
2018-08-27T06:34:15.596Z,15.19
2018-08-27T06:35:25.551Z,15.29
2018-08-27T06:36:35.373Z,15.25
2018-08-27T06:37:45.372Z,15.29
2018-08-27T06:38:55.473Z,15.27
2018-08-27T06:40:05.472Z,15.37
2018-08-27T06:41:14.938Z,15.39
2018-08-27T06:42:24.383Z,15.48
2018-08-27T06:43:33.842Z,15.51
2018-08-27T06:44:43.841Z,15.55
2018-08-27T06:45:53.814Z,15.65
2018-08-27T06:47:03.522Z,15.75
2018-08-27T06:48:13.306Z,15.75
2018-08-27T06:49:23.028Z,15.84
2018-08-27T06:50:33.024Z,15.88
2018-08-27T06:51:42.988Z,16
2018-08-27T06:52:52.710Z,16.06
2018-08-27T06:54:02.696Z,16.16
2018-08-27T06:55:12.765Z,16.13
2018-08-27T06:56:22.743Z,16.24
2018-08-27T06:57:32.704Z,16.28
2018-08-27T06:58:42.694Z,16.25
2018-08-27T06:59:52.681Z,16.22
2018-08-27T07:01:02.646Z,16.32
2018-08-27T07:02:12.408Z,16.41
2018-08-27T07:03:22.492Z,16.46
2018-08-27T07:04:32.504Z,16.47
2018-08-27T07:05:42.228Z,16.57
2018-08-27T07:06:52.199Z,16.55
2018-08-27T07:08:01.915Z,16.62
2018-08-27T07:09:11.897Z,16.69
2018-08-27T07:10:21.365Z,16.72
2018-08-27T07:11:30.848Z,16.82
2018-08-27T07:12:40.693Z,16.89
2018-08-27T07:13:50.711Z,16.84
2018-08-27T07:15:00.694Z,16.92
2018-08-27T07:16:10.448Z,17.07
2018-08-27T07:17:20.162Z,17.01
2018-08-27T07:18:30.172Z,17.04
2018-08-27T07:19:40.144Z,17.22
2018-08-27T07:20:50.142Z,17.16
2018-08-27T07:21:59.601Z,17.32
2018-08-27T07:23:09.576Z,17.3
2018-08-27T07:24:19.553Z,17.38
2018-08-27T07:25:29.275Z,17.52
2018-08-27T07:26:39.257Z,17.53
2018-08-27T07:27:49.234Z,17.63
2018-08-27T07:28:58.949Z,17.63
2018-08-27T07:30:08.664Z,17.76
2018-08-27T07:31:18.667Z,17.84
2018-08-27T07:32:28.682Z,17.93
2018-08-27T07:33:38.127Z,17.93
2018-08-27T07:34:48.352Z,17.93
2018-08-27T07:35:58.064Z,17.93
2018-08-27T07:37:08.075Z,18.06
2018-08-27T07:38:17.797Z,18.05
2018-08-27T07:39:27.565Z,18.06
2018-08-27T07:40:37.571Z,18.02
2018-08-27T07:41:47.534Z,17.98
2018-08-27T07:42:57.535Z,17.98
2018-08-27T07:44:07.518Z,18
2018-08-27T07:45:17.256Z,18.03
2018-08-27T07:46:27.273Z,17.95
2018-08-27T07:47:36.982Z,18
2018-08-27T07:48:46.949Z,18.06
2018-08-27T07:49:56.935Z,18.11
2018-08-27T07:51:07.048Z,18.21
2018-08-27T07:52:16.906Z,18.24
2018-08-27T07:53:26.376Z,18.24
2018-08-27T07:54:35.611Z,18.3
2018-08-27T07:55:45.589Z,18.23
2018-08-27T07:56:55.551Z,18.37
2018-08-27T07:58:05.556Z,18.51
2018-08-27T07:59:15.533Z,18.57
2018-08-27T08:00:25.271Z,18.71
2018-08-27T08:01:34.728Z,18.78
2018-08-27T08:02:44.726Z,18.78
2018-08-27T08:03:54.695Z,18.92
2018-08-27T08:05:04.662Z,18.86
2018-08-27T08:06:14.379Z,18.92
2018-08-27T08:07:24.674Z,19.09
2018-08-27T08:08:34.740Z,19.2
2018-08-27T08:09:44.198Z,19.19
2018-08-27T08:10:54.166Z,19.27
2018-08-27T08:12:03.364Z,19.52
2018-08-27T08:13:13.337Z,19.38
2018-08-27T08:14:23.049Z,19.47
2018-08-27T08:15:33.032Z,19.49
2018-08-27T08:16:43.019Z,19.52
2018-08-27T08:17:53.001Z,19.53
2018-08-27T08:19:02.723Z,19.53
2018-08-27T08:20:12.692Z,19.62
2018-08-27T08:21:22.416Z,19.66
2018-08-27T08:22:32.401Z,19.71
2018-08-27T08:23:42.440Z,19.72
2018-08-27T08:24:51.896Z,19.82
2018-08-27T08:26:01.345Z,19.89
2018-08-27T08:27:11.333Z,19.9
2018-08-27T08:28:21.044Z,19.97
2018-08-27T08:29:31.020Z,20.12
2018-08-27T08:30:41.000Z,20.24
2018-08-27T08:31:50.728Z,20.46
2018-08-27T08:33:00.763Z,20.49
2018-08-27T08:34:10.852Z,20.48
2018-08-27T08:35:20.574Z,20.56
2018-08-27T08:36:30.306Z,20.58
2018-08-27T08:37:40.290Z,20.49
2018-08-27T08:38:49.747Z,20.58
2018-08-27T08:39:59.605Z,20.73
2018-08-27T08:41:10.168Z,20.7
2018-08-27T08:42:20.188Z,20.66
2018-08-27T08:43:29.933Z,20.73
2018-08-27T08:44:39.652Z,20.71
2018-08-27T08:45:49.388Z,20.83
2018-08-27T08:46:59.158Z,20.86
2018-08-27T08:48:09.159Z,20.8
2018-08-27T08:49:19.148Z,20.71
2018-08-27T08:50:29.139Z,20.86
2018-08-27T08:51:39.141Z,20.9
2018-08-27T08:52:48.923Z,21
2018-08-27T08:53:58.659Z,20.92
2018-08-27T08:55:08.635Z,20.95
2018-08-27T08:56:18.135Z,21.04
2018-08-27T08:57:28.122Z,21.11
2018-08-27T08:58:38.153Z,21.14
2018-08-27T08:59:48.144Z,21.2
2018-08-27T09:00:58.243Z,21.17
2018-08-27T09:02:08.265Z,21.11
2018-08-27T09:03:18.274Z,21.14
2018-08-27T09:04:28.264Z,21.11
2018-08-27T09:05:38.254Z,21.17
2018-08-27T09:06:48.259Z,21.23
2018-08-27T09:07:58.058Z,21.28
2018-08-27T09:09:08.587Z,21.29
2018-08-27T09:10:18.664Z,21.22
2018-08-27T09:11:28.646Z,21.19
2018-08-27T09:12:38.627Z,21.1
2018-08-27T09:13:48.594Z,21.07
2018-08-27T09:14:58.327Z,21.03
2018-08-27T09:16:07.786Z,21.04
2018-08-27T09:17:17.942Z,21.01
2018-08-27T09:18:27.788Z,20.98
2018-08-27T09:19:37.263Z,20.98
2018-08-27T09:20:47.241Z,21.03
2018-08-27T09:21:57.223Z,21.04
2018-08-27T09:23:07.198Z,20.98
2018-08-27T09:24:17.172Z,21.01
2018-08-27T09:25:26.622Z,20.89
2018-08-27T09:26:36.341Z,20.85
2018-08-27T09:27:46.326Z,20.75
2018-08-27T09:28:56.029Z,20.78
2018-08-27T09:30:06.026Z,20.85
2018-08-27T09:31:16.158Z,20.67
2018-08-27T09:32:26.377Z,20.56
2018-08-27T09:33:36.096Z,20.55
2018-08-27T09:34:45.818Z,20.53
2018-08-27T09:35:55.575Z,20.55
2018-08-27T09:37:05.910Z,20.52
2018-08-27T09:38:15.769Z,20.5
2018-08-27T09:39:25.763Z,20.53
2018-08-27T09:40:35.738Z,20.55
2018-08-27T09:41:46.063Z,20.6
2018-08-27T09:42:55.776Z,20.64
2018-08-27T09:44:05.804Z,20.64
2018-08-27T09:45:15.787Z,20.64
2018-08-27T09:46:25.781Z,20.75
2018-08-27T09:47:35.770Z,20.77
2018-08-27T09:48:45.229Z,20.77
2018-08-27T09:49:54.968Z,20.95
2018-08-27T09:51:04.681Z,21.01
2018-08-27T09:52:14.681Z,21.11
2018-08-27T09:53:24.670Z,21.05
2018-08-27T09:54:34.647Z,21.17
2018-08-27T09:55:44.669Z,21.29
2018-08-27T09:56:54.678Z,21.33
2018-08-27T09:58:04.397Z,21.33
2018-08-27T09:59:14.489Z,21.33
2018-08-27T10:00:24.729Z,21.28
2018-08-27T10:01:34.726Z,21.32
2018-08-27T10:02:44.706Z,21.32
2018-08-27T10:03:54.703Z,21.15
2018-08-27T10:05:04.417Z,21.33
2018-08-27T10:06:14.397Z,21.25
2018-08-27T10:07:24.373Z,21.3
2018-08-27T10:08:33.838Z,21.2
2018-08-27T10:09:43.821Z,21.33
2018-08-27T10:10:53.295Z,21.26
2018-08-27T10:12:03.286Z,21.32
2018-08-27T10:13:13.276Z,21.32
2018-08-27T10:14:23.268Z,21.32
2018-08-27T10:15:33.328Z,21.37
2018-08-27T10:16:43.328Z,21.19
2018-08-27T10:17:53.328Z,21.11
2018-08-27T10:19:02.783Z,21.13
2018-08-27T10:20:12.764Z,21.15
2018-08-27T10:21:22.766Z,21.13
2018-08-27T10:22:32.976Z,21.11
2018-08-27T10:23:43.287Z,21.07
2018-08-27T10:24:53.265Z,21
2018-08-27T10:26:02.972Z,20.95
2018-08-27T10:27:12.717Z,20.9
2018-08-27T10:28:22.440Z,21.01
2018-08-27T10:29:32.168Z,20.95
2018-08-27T10:30:42.167Z,21.03
2018-08-27T10:31:52.216Z,20.95
2018-08-27T10:33:02.198Z,20.98
2018-08-27T10:34:12.167Z,21.08
2018-08-27T10:35:22.156Z,20.98
2018-08-27T10:36:32.152Z,21.04
2018-08-27T10:37:42.157Z,21.07
2018-08-27T10:38:51.877Z,21.03
2018-08-27T10:40:02.108Z,21.03
2018-08-27T10:41:12.095Z,21.08
2018-08-27T10:42:22.312Z,21.01
2018-08-27T10:43:32.336Z,21.03
2018-08-27T10:44:42.062Z,21.1
2018-08-27T10:45:51.557Z,21.11
2018-08-27T10:47:01.538Z,21.17
2018-08-27T10:48:11.518Z,21.22
2018-08-27T10:49:21.263Z,21.25
2018-08-27T10:50:31.086Z,21.28
2018-08-27T10:51:41.220Z,21.3
2018-08-27T10:52:51.225Z,21.33
2018-08-27T10:54:01.211Z,21.35
2018-08-27T10:55:10.934Z,21.38
2018-08-27T10:56:21.143Z,21.33
2018-08-27T10:57:31.137Z,21.35
2018-08-27T10:58:40.592Z,21.33
2018-08-27T10:59:50.608Z,21.37
2018-08-27T11:01:00.607Z,21.25
2018-08-27T11:02:10.592Z,21.28
2018-08-27T11:03:20.574Z,21.14
2018-08-27T11:04:30.283Z,21.08
2018-08-27T11:05:40.375Z,21.13
2018-08-27T11:06:50.345Z,21.1
2018-08-27T11:07:59.825Z,21.08
2018-08-27T11:09:09.807Z,21
2018-08-27T11:10:19.522Z,21.04
2018-08-27T11:11:29.527Z,21.13
2018-08-27T11:12:39.550Z,21.14
2018-08-27T11:13:49.548Z,21.14
2018-08-27T11:14:59.527Z,21.13
2018-08-27T11:16:09.479Z,21.03
2018-08-27T11:17:19.320Z,21.05
2018-08-27T11:18:29.339Z,21.14
2018-08-27T11:19:39.735Z,21.14
2018-08-27T11:20:50.543Z,21.15
2018-08-27T11:22:00.534Z,21.14
2018-08-27T11:23:10.255Z,21.19
2018-08-27T11:24:20.260Z,21.2
2018-08-27T11:25:30.289Z,21.23
2018-08-27T11:26:40.999Z,21.26
2018-08-27T11:27:51.793Z,21.33
2018-08-27T11:29:01.285Z,21.28
2018-08-27T11:30:11.295Z,21.3
2018-08-27T11:31:21.034Z,21.35
2018-08-27T11:32:30.746Z,21.37
2018-08-27T11:33:40.478Z,21.29
2018-08-27T11:34:49.926Z,21.32
2018-08-27T11:35:59.645Z,21.3
2018-08-27T11:37:09.359Z,21.29
2018-08-27T11:38:19.335Z,21.29
2018-08-27T11:39:29.311Z,21.26
2018-08-27T11:40:39.288Z,21.17
2018-08-27T11:41:49.031Z,21.17
2018-08-27T11:42:59.011Z,21.2
2018-08-27T11:44:08.710Z,21.17
2018-08-27T11:45:18.429Z,21.15
2018-08-27T11:46:28.430Z,21.07
2018-08-27T11:47:38.660Z,21.03
2018-08-27T11:48:48.625Z,21.15
2018-08-27T11:49:58.333Z,21.15
2018-08-27T11:51:08.407Z,21.17
2018-08-27T11:52:18.700Z,21.26
2018-08-27T11:53:28.681Z,21.29
2018-08-27T11:54:38.674Z,21.45
2018-08-27T11:55:48.671Z,21.4
2018-08-27T11:56:58.442Z,21.38
2018-08-27T11:58:08.578Z,21.41
2018-08-27T11:59:18.377Z,21.44
2018-08-27T12:00:27.939Z,21.41
2018-08-27T12:01:37.993Z,21.37
2018-08-27T12:02:47.984Z,21.29
2018-08-27T12:03:57.957Z,21.25
2018-08-27T12:05:07.945Z,21.29
2018-08-27T12:06:17.952Z,21.35
2018-08-27T12:07:27.957Z,21.3
2018-08-27T12:08:37.983Z,21.41
2018-08-27T12:09:47.973Z,21.4
2018-08-27T12:10:58.337Z,21.41
2018-08-27T12:12:08.433Z,21.45
2018-08-27T12:13:18.637Z,21.47
2018-08-27T12:14:29.111Z,21.48
2018-08-27T12:15:39.308Z,21.5
2018-08-27T12:16:50.032Z,21.45
2018-08-27T12:18:00.394Z,21.5
2018-08-27T12:19:10.124Z,21.5
2018-08-27T12:20:20.270Z,21.66
2018-08-27T12:21:30.611Z,21.63
2018-08-27T12:22:40.471Z,21.47
2018-08-27T12:23:51.114Z,21.59
2018-08-27T12:25:01.563Z,21.58
2018-08-27T12:26:11.341Z,21.51
2018-08-27T12:27:21.351Z,21.54
2018-08-27T12:28:31.456Z,21.53
2018-08-27T12:29:42.422Z,21.51
2018-08-27T12:30:52.321Z,21.6
2018-08-27T12:32:02.648Z,21.58
2018-08-27T12:33:13.229Z,21.54
2018-08-27T12:34:23.348Z,21.7
2018-08-27T12:35:33.366Z,21.58
2018-08-27T12:36:44.252Z,21.63
2018-08-27T12:37:55.309Z,21.74
2018-08-27T12:39:05.096Z,21.68
2018-08-27T12:40:14.830Z,21.77
2018-08-27T12:41:24.998Z,21.77
2018-08-27T12:42:34.799Z,21.8
2018-08-27T12:43:45.362Z,21.8
2018-08-27T12:44:55.866Z,21.74
2018-08-27T12:46:06.155Z,21.8
2018-08-27T12:47:16.237Z,21.84
2018-08-27T12:48:26.209Z,21.92
2018-08-27T12:49:35.970Z,21.94
2018-08-27T12:50:46.066Z,22.08
2018-08-27T12:51:56.240Z,22.07
2018-08-27T12:53:05.736Z,22.08
2018-08-27T12:54:15.485Z,22.16
2018-08-27T12:55:25.248Z,22.06
2018-08-27T12:56:35.235Z,22.15
2018-08-27T12:57:45.221Z,22.12
2018-08-27T12:58:54.918Z,22.19
2018-08-27T13:00:05.339Z,22.33
2018-08-27T13:01:14.808Z,22.37
2018-08-27T13:02:24.266Z,22.46
2018-08-27T13:03:34.252Z,22.38
2018-08-27T13:04:44.477Z,22.36
2018-08-27T13:05:54.106Z,22.38
2018-08-27T13:07:04.120Z,22.36
2018-08-27T13:08:14.446Z,22.37
2018-08-27T13:09:24.256Z,22.28
2018-08-27T13:10:34.233Z,22.3
2018-08-27T13:11:44.472Z,22.22
2018-08-27T13:12:54.652Z,22.21
2018-08-27T13:14:04.997Z,22.26
2018-08-27T13:15:15.048Z,22.14
2018-08-27T13:16:25.097Z,22.28
2018-08-27T13:17:34.847Z,22.34
2018-08-27T13:18:44.334Z,22.34
2018-08-27T13:19:54.125Z,22.23
2018-08-27T13:21:03.596Z,22.22
2018-08-27T13:22:13.582Z,22.22
2018-08-27T13:23:23.550Z,22.21
2018-08-27T13:24:33.518Z,22.23
2018-08-27T13:25:43.645Z,22.33
2018-08-27T13:26:53.864Z,22.34
2018-08-27T13:28:03.855Z,22.38
2018-08-27T13:29:13.600Z,22.55
2018-08-27T13:30:24.070Z,22.43
2018-08-27T13:31:34.537Z,22.49
2018-08-27T13:32:45.221Z,22.52
2018-08-27T13:33:54.939Z,22.52
2018-08-27T13:35:04.947Z,22.56
2018-08-27T13:36:14.920Z,22.51
2018-08-27T13:37:24.892Z,22.61
2018-08-27T13:38:34.882Z,22.59
2018-08-27T13:39:44.613Z,22.63
2018-08-27T13:40:54.589Z,22.52
2018-08-27T13:42:04.580Z,22.56
2018-08-27T13:43:14.554Z,22.41
2018-08-27T13:44:24.301Z,22.33
2018-08-27T13:45:34.285Z,22.37
2018-08-27T13:46:44.044Z,22.34
2018-08-27T13:47:53.758Z,22.31
2018-08-27T13:49:03.218Z,22.4
2018-08-27T13:50:13.202Z,22.41
2018-08-27T13:51:23.194Z,22.44
2018-08-27T13:52:32.411Z,22.4
2018-08-27T13:53:42.386Z,22.38
2018-08-27T13:54:52.363Z,22.41
2018-08-27T13:56:02.351Z,22.36
2018-08-27T13:57:12.066Z,22.51
2018-08-27T13:58:22.029Z,22.61
2018-08-27T13:59:31.768Z,22.63
2018-08-27T14:00:41.743Z,22.53
2018-08-27T14:01:51.713Z,22.71
2018-08-27T14:03:01.704Z,22.76
2018-08-27T14:04:11.676Z,22.73
2018-08-27T14:05:21.771Z,22.7
2018-08-27T14:06:32.368Z,22.74
2018-08-27T14:07:42.400Z,22.7
2018-08-27T14:08:52.375Z,22.67
2018-08-27T14:10:02.359Z,22.58
2018-08-27T14:11:12.344Z,22.49
2018-08-27T14:12:22.003Z,22.46
2018-08-27T14:13:32.300Z,22.37
2018-08-27T14:14:42.403Z,22.36
2018-08-27T14:15:53.155Z,22.31
2018-08-27T14:17:03.269Z,22.21
2018-08-27T14:18:12.996Z,22.19
2018-08-27T14:19:23.493Z,21.85
2018-08-27T14:20:34.226Z,21.72
2018-08-27T14:21:44.314Z,21.8
2018-08-27T14:22:54.291Z,21.69
2018-08-27T14:24:04.270Z,21.74
2018-08-27T14:25:13.985Z,21.75
2018-08-27T14:26:23.862Z,21.74
2018-08-27T14:27:34.284Z,21.77
2018-08-27T14:28:43.992Z,21.75
2018-08-27T14:29:54.009Z,21.75
2018-08-27T14:31:03.872Z,21.78
2018-08-27T14:32:13.075Z,21.8
2018-08-27T14:33:23.123Z,21.83
2018-08-27T14:34:33.306Z,21.83
2018-08-27T14:35:43.541Z,21.88
2018-08-27T14:36:53.880Z,21.94
2018-08-27T14:38:03.867Z,21.99
2018-08-27T14:39:14.129Z,22.06
2018-08-27T14:40:24.536Z,22.12
2018-08-27T14:41:35.020Z,22.04
2018-08-27T14:42:45.797Z,21.92
2018-08-27T14:43:55.779Z,21.91
2018-08-27T14:45:06.056Z,21.88
2018-08-27T14:46:16.429Z,21.81
2018-08-27T14:47:26.146Z,22.08
2018-08-27T14:48:36.191Z,22.06
2018-08-27T14:49:45.657Z,22.01
2018-08-27T14:50:55.139Z,22.04
2018-08-27T14:52:04.869Z,22.16
2018-08-27T14:53:14.843Z,22.08
2018-08-27T14:54:24.869Z,22.18
2018-08-27T14:55:34.653Z,22.16
2018-08-27T14:56:44.632Z,22.18
2018-08-27T14:57:54.610Z,22.36
2018-08-27T14:59:04.584Z,22.4
2018-08-27T15:00:14.337Z,22.41
2018-08-27T15:01:24.075Z,22.37
2018-08-27T15:02:34.188Z,22.4
2018-08-27T15:03:44.313Z,22.44